sensor_id;sensor_type;location;lat;lon;timestamp;temperature;humidity
47765;DHT22;33529;49.242;8.670;2023-03-05T00:01:59;3.70;99.90
47765;DHT22;33529;49.242;8.670;2023-03-05T00:04:26;3.70;99.90
47765;DHT22;33529;49.242;8.670;2023-03-05T00:06:53;3.70;99.90
47765;DHT22;33529;49.242;8.670;2023-03-05T00:09:21;3.70;99.90
47765;DHT22;33529;49.242;8.670;2023-03-05T00:11:47;3.70;99.90
47765;DHT22;33529;49.242;8.670;2023-03-05T00:14:14;3.70;99.90
47765;DHT22;33529;49.242;8.670;2023-03-05T00:16:41;3.70;99.90
47765;DHT22;33529;49.242;8.670;2023-03-05T00:19:09;3.70;99.90
47765;DHT22;33529;49.242;8.670;2023-03-05T00:21:38;3.70;99.90
47765;DHT22;33529;49.242;8.670;2023-03-05T00:24:11;3.70;99.90
47765;DHT22;33529;49.242;8.670;2023-03-05T00:26:39;3.70;99.90
47765;DHT22;33529;49.242;8.670;2023-03-05T00:29:07;3.70;99.90
47765;DHT22;33529;49.242;8.670;2023-03-05T00:31:35;3.70;99.90
47765;DHT22;33529;49.242;8.670;2023-03-05T00:34:11;3.80;99.90
47765;DHT22;33529;49.242;8.670;2023-03-05T00:36:40;3.80;99.90
47765;DHT22;33529;49.242;8.670;2023-03-05T00:39:07;3.80;99.90
47765;DHT22;33529;49.242;8.670;2023-03-05T00:41:34;3.80;99.90
47765;DHT22;33529;49.242;8.670;2023-03-05T00:44:01;3.80;99.90
47765;DHT22;33529;49.242;8.670;2023-03-05T00:46:28;3.80;99.90
47765;DHT22;33529;49.242;8.670;2023-03-05T00:48:56;3.80;99.90
47765;DHT22;33529;49.242;8.670;2023-03-05T00:51:23;3.80;99.90
47765;DHT22;33529;49.242;8.670;2023-03-05T00:53:50;3.80;99.90
47765;DHT22;33529;49.242;8.670;2023-03-05T00:56:18;3.80;99.90
47765;DHT22;33529;49.242;8.670;2023-03-05T00:58:45;3.80;99.90
47765;DHT22;33529;49.242;8.670;2023-03-05T01:01:12;3.80;99.90
47765;DHT22;33529;49.242;8.670;2023-03-05T01:03:38;3.80;99.90
47765;DHT22;33529;49.242;8.670;2023-03-05T01:06:09;3.80;99.90
47765;DHT22;33529;49.242;8.670;2023-03-05T01:08:36;3.80;99.90
47765;DHT22;33529;49.242;8.670;2023-03-05T01:11:04;3.80;99.90
47765;DHT22;33529;49.242;8.670;2023-03-05T01:13:32;3.80;99.90
47765;DHT22;33529;49.242;8.670;2023-03-05T01:15:59;3.80;99.90
47765;DHT22;33529;49.242;8.670;2023-03-05T01:18:26;3.80;99.90
47765;DHT22;33529;49.242;8.670;2023-03-05T01:20:53;3.80;99.90
47765;DHT22;33529;49.242;8.670;2023-03-05T01:23:20;3.80;99.90
47765;DHT22;33529;49.242;8.670;2023-03-05T01:25:54;3.80;99.90
47765;DHT22;33529;49.242;8.670;2023-03-05T01:28:22;3.80;99.90
47765;DHT22;33529;49.242;8.670;2023-03-05T01:30:49;3.80;99.90
47765;DHT22;33529;49.242;8.670;2023-03-05T01:33:16;3.70;99.90
47765;DHT22;33529;49.242;8.670;2023-03-05T01:35:45;3.70;99.90
47765;DHT22;33529;49.242;8.670;2023-03-05T01:38:13;3.60;99.90
47765;DHT22;33529;49.242;8.670;2023-03-05T01:40:41;3.60;99.90
47765;DHT22;33529;49.242;8.670;2023-03-05T01:48:47;3.60;99.90
47765;DHT22;33529;49.242;8.670;2023-03-05T01:51:16;3.60;99.90
47765;DHT22;33529;49.242;8.670;2023-03-05T01:53:45;3.60;99.90
47765;DHT22;33529;49.242;8.670;2023-03-05T01:56:12;3.60;99.90
47765;DHT22;33529;49.242;8.670;2023-03-05T01:58:39;3.60;99.90
47765;DHT22;33529;49.242;8.670;2023-03-05T02:01:06;3.60;99.90
47765;DHT22;33529;49.242;8.670;2023-03-05T02:03:33;3.50;99.90
47765;DHT22;33529;49.242;8.670;2023-03-05T02:06:02;3.50;99.90
47765;DHT22;33529;49.242;8.670;2023-03-05T02:08:29;3.60;99.90
47765;DHT22;33529;49.242;8.670;2023-03-05T02:15:02;3.50;99.90
47765;DHT22;33529;49.242;8.670;2023-03-05T02:17:29;3.50;99.90
47765;DHT22;33529;49.242;8.670;2023-03-05T02:20:12;3.50;99.90
47765;DHT22;33529;49.242;8.670;2023-03-05T02:22:39;3.40;99.90
47765;DHT22;33529;49.242;8.670;2023-03-05T02:25:18;3.40;99.90
47765;DHT22;33529;49.242;8.670;2023-03-05T02:28:11;3.50;99.90
47765;DHT22;33529;49.242;8.670;2023-03-05T02:30:39;3.50;99.90
47765;DHT22;33529;49.242;8.670;2023-03-05T02:33:07;3.50;99.90
47765;DHT22;33529;49.242;8.670;2023-03-05T02:35:34;3.50;99.90
47765;DHT22;33529;49.242;8.670;2023-03-05T02:38:02;3.50;99.90
47765;DHT22;33529;49.242;8.670;2023-03-05T02:40:29;3.50;99.90
47765;DHT22;33529;49.242;8.670;2023-03-05T02:42:56;3.50;99.90
47765;DHT22;33529;49.242;8.670;2023-03-05T02:45:23;3.50;99.90
47765;DHT22;33529;49.242;8.670;2023-03-05T02:47:50;3.50;99.90
47765;DHT22;33529;49.242;8.670;2023-03-05T02:50:18;3.50;99.90
47765;DHT22;33529;49.242;8.670;2023-03-05T02:52:45;3.50;99.90
47765;DHT22;33529;49.242;8.670;2023-03-05T02:55:14;3.50;99.90
47765;DHT22;33529;49.242;8.670;2023-03-05T02:57:42;3.50;99.90
47765;DHT22;33529;49.242;8.670;2023-03-05T03:00:09;3.50;99.90
47765;DHT22;33529;49.242;8.670;2023-03-05T03:02:36;3.50;99.90
47765;DHT22;33529;49.242;8.670;2023-03-05T03:05:05;3.40;99.90
47765;DHT22;33529;49.242;8.670;2023-03-05T03:07:32;3.40;99.90
47765;DHT22;33529;49.242;8.670;2023-03-05T03:10:04;3.40;99.90
47765;DHT22;33529;49.242;8.670;2023-03-05T03:12:36;3.30;99.90
47765;DHT22;33529;49.242;8.670;2023-03-05T03:15:04;3.40;99.90
47765;DHT22;33529;49.242;8.670;2023-03-05T03:17:31;3.40;99.90
47765;DHT22;33529;49.242;8.670;2023-03-05T03:20:00;3.30;99.90
47765;DHT22;33529;49.242;8.670;2023-03-05T03:22:28;3.30;99.90
47765;DHT22;33529;49.242;8.670;2023-03-05T03:24:55;3.30;99.90
47765;DHT22;33529;49.242;8.670;2023-03-05T03:27:22;3.30;99.90
47765;DHT22;33529;49.242;8.670;2023-03-05T03:29:49;3.30;99.90
47765;DHT22;33529;49.242;8.670;2023-03-05T03:32:16;3.30;99.90
47765;DHT22;33529;49.242;8.670;2023-03-05T03:34:42;3.30;99.90
47765;DHT22;33529;49.242;8.670;2023-03-05T03:37:10;3.30;99.90
47765;DHT22;33529;49.242;8.670;2023-03-05T03:39:37;3.20;99.90
47765;DHT22;33529;49.242;8.670;2023-03-05T03:42:04;3.20;99.90
47765;DHT22;33529;49.242;8.670;2023-03-05T03:44:30;3.20;99.90
47765;DHT22;33529;49.242;8.670;2023-03-05T03:46:57;3.30;99.90
47765;DHT22;33529;49.242;8.670;2023-03-05T03:49:25;3.20;99.90
47765;DHT22;33529;49.242;8.670;2023-03-05T03:51:53;3.30;99.90
47765;DHT22;33529;49.242;8.670;2023-03-05T03:54:20;3.30;99.90
47765;DHT22;33529;49.242;8.670;2023-03-05T03:56:48;3.30;99.90
47765;DHT22;33529;49.242;8.670;2023-03-05T03:59:15;3.30;99.90
47765;DHT22;33529;49.242;8.670;2023-03-05T04:01:42;3.20;99.90
47765;DHT22;33529;49.242;8.670;2023-03-05T04:04:11;3.20;99.90
47765;DHT22;33529;49.242;8.670;2023-03-05T04:06:38;3.20;99.90
47765;DHT22;33529;49.242;8.670;2023-03-05T04:09:06;3.20;99.90
47765;DHT22;33529;49.242;8.670;2023-03-05T04:11:34;3.30;99.90
47765;DHT22;33529;49.242;8.670;2023-03-05T04:14:02;3.30;99.90
47765;DHT22;33529;49.242;8.670;2023-03-05T04:16:29;3.30;99.90
47765;DHT22;33529;49.242;8.670;2023-03-05T04:18:56;3.30;99.90
47765;DHT22;33529;49.242;8.670;2023-03-05T04:21:23;3.20;99.90
47765;DHT22;33529;49.242;8.670;2023-03-05T04:23:50;3.20;99.90
47765;DHT22;33529;49.242;8.670;2023-03-05T04:26:17;3.30;99.90
47765;DHT22;33529;49.242;8.670;2023-03-05T04:28:45;3.30;99.90
47765;DHT22;33529;49.242;8.670;2023-03-05T04:31:14;3.30;99.90
47765;DHT22;33529;49.242;8.670;2023-03-05T04:33:41;3.20;99.90
47765;DHT22;33529;49.242;8.670;2023-03-05T04:36:08;3.30;99.90
47765;DHT22;33529;49.242;8.670;2023-03-05T04:38:35;3.30;99.90
47765;DHT22;33529;49.242;8.670;2023-03-05T04:41:02;3.30;99.90
47765;DHT22;33529;49.242;8.670;2023-03-05T04:43:29;3.30;99.90
47765;DHT22;33529;49.242;8.670;2023-03-05T04:45:56;3.30;99.90
47765;DHT22;33529;49.242;8.670;2023-03-05T04:48:25;3.30;99.90
47765;DHT22;33529;49.242;8.670;2023-03-05T04:50:51;3.30;99.90
47765;DHT22;33529;49.242;8.670;2023-03-05T04:53:18;3.40;99.90
47765;DHT22;33529;49.242;8.670;2023-03-05T04:55:45;3.30;99.90
47765;DHT22;33529;49.242;8.670;2023-03-05T04:58:12;3.30;99.90
47765;DHT22;33529;49.242;8.670;2023-03-05T05:00:38;3.30;99.90
47765;DHT22;33529;49.242;8.670;2023-03-05T05:03:05;3.30;99.90
47765;DHT22;33529;49.242;8.670;2023-03-05T05:05:32;3.20;99.90
47765;DHT22;33529;49.242;8.670;2023-03-05T05:07:59;3.20;99.90
47765;DHT22;33529;49.242;8.670;2023-03-05T05:10:26;3.30;99.90
47765;DHT22;33529;49.242;8.670;2023-03-05T05:12:53;3.30;99.90
47765;DHT22;33529;49.242;8.670;2023-03-05T05:15:20;3.20;99.90
47765;DHT22;33529;49.242;8.670;2023-03-05T05:17:47;3.20;99.90
47765;DHT22;33529;49.242;8.670;2023-03-05T05:20:15;3.20;99.90
47765;DHT22;33529;49.242;8.670;2023-03-05T05:22:43;3.20;99.90
47765;DHT22;33529;49.242;8.670;2023-03-05T05:25:10;3.20;99.90
47765;DHT22;33529;49.242;8.670;2023-03-05T05:27:38;3.20;99.90
47765;DHT22;33529;49.242;8.670;2023-03-05T05:30:06;3.20;99.90
47765;DHT22;33529;49.242;8.670;2023-03-05T05:32:33;3.20;99.90
47765;DHT22;33529;49.242;8.670;2023-03-05T05:35:01;3.20;99.90
47765;DHT22;33529;49.242;8.670;2023-03-05T05:37:28;3.20;99.90
47765;DHT22;33529;49.242;8.670;2023-03-05T05:39:55;3.10;99.90
47765;DHT22;33529;49.242;8.670;2023-03-05T05:42:23;3.10;99.90
47765;DHT22;33529;49.242;8.670;2023-03-05T05:44:50;3.10;99.90
47765;DHT22;33529;49.242;8.670;2023-03-05T05:47:17;3.10;99.90
47765;DHT22;33529;49.242;8.670;2023-03-05T05:49:44;3.10;99.90
47765;DHT22;33529;49.242;8.670;2023-03-05T05:52:11;3.10;99.90
47765;DHT22;33529;49.242;8.670;2023-03-05T05:54:39;3.10;99.90
47765;DHT22;33529;49.242;8.670;2023-03-05T05:57:06;3.20;99.90
47765;DHT22;33529;49.242;8.670;2023-03-05T05:59:33;3.20;99.90
47765;DHT22;33529;49.242;8.670;2023-03-05T06:02:00;3.20;99.90
47765;DHT22;33529;49.242;8.670;2023-03-05T06:04:27;3.20;99.90
47765;DHT22;33529;49.242;8.670;2023-03-05T06:06:54;3.20;99.90
47765;DHT22;33529;49.242;8.670;2023-03-05T06:09:20;3.20;99.90
47765;DHT22;33529;49.242;8.670;2023-03-05T06:11:47;3.20;99.90
47765;DHT22;33529;49.242;8.670;2023-03-05T06:14:14;3.20;99.90
47765;DHT22;33529;49.242;8.670;2023-03-05T06:16:40;3.20;99.90
47765;DHT22;33529;49.242;8.670;2023-03-05T06:19:11;3.20;99.90
47765;DHT22;33529;49.242;8.670;2023-03-05T06:21:39;3.20;99.90
47765;DHT22;33529;49.242;8.670;2023-03-05T06:24:06;3.30;99.90
47765;DHT22;33529;49.242;8.670;2023-03-05T06:26:33;3.30;99.90
47765;DHT22;33529;49.242;8.670;2023-03-05T06:28:59;3.30;99.90
47765;DHT22;33529;49.242;8.670;2023-03-05T06:31:28;3.30;99.90
47765;DHT22;33529;49.242;8.670;2023-03-05T06:33:57;3.30;99.90
47765;DHT22;33529;49.242;8.670;2023-03-05T06:36:28;3.20;99.90
47765;DHT22;33529;49.242;8.670;2023-03-05T06:38:55;3.30;99.90
47765;DHT22;33529;49.242;8.670;2023-03-05T06:41:26;3.30;99.90
47765;DHT22;33529;49.242;8.670;2023-03-05T06:43:54;3.30;99.90
47765;DHT22;33529;49.242;8.670;2023-03-05T06:46:25;3.30;99.90
47765;DHT22;33529;49.242;8.670;2023-03-05T06:48:58;3.30;99.90
47765;DHT22;33529;49.242;8.670;2023-03-05T06:51:32;3.30;99.90
47765;DHT22;33529;49.242;8.670;2023-03-05T06:54:01;3.30;99.90
47765;DHT22;33529;49.242;8.670;2023-03-05T06:56:29;3.30;99.90
47765;DHT22;33529;49.242;8.670;2023-03-05T06:58:56;3.30;99.90
47765;DHT22;33529;49.242;8.670;2023-03-05T07:01:22;3.30;99.90
47765;DHT22;33529;49.242;8.670;2023-03-05T07:03:51;3.30;99.90
47765;DHT22;33529;49.242;8.670;2023-03-05T07:06:19;3.40;99.90
47765;DHT22;33529;49.242;8.670;2023-03-05T07:08:47;3.40;99.90
47765;DHT22;33529;49.242;8.670;2023-03-05T07:11:16;3.40;99.90
47765;DHT22;33529;49.242;8.670;2023-03-05T07:13:43;3.40;99.90
47765;DHT22;33529;49.242;8.670;2023-03-05T07:16:16;3.40;99.90
47765;DHT22;33529;49.242;8.670;2023-03-05T07:18:43;3.40;99.90
47765;DHT22;33529;49.242;8.670;2023-03-05T07:21:15;3.40;99.90
47765;DHT22;33529;49.242;8.670;2023-03-05T07:23:43;3.40;99.90
47765;DHT22;33529;49.242;8.670;2023-03-05T07:26:10;3.50;99.90
47765;DHT22;33529;49.242;8.670;2023-03-05T07:28:37;3.50;99.90
47765;DHT22;33529;49.242;8.670;2023-03-05T07:31:06;3.50;99.90
47765;DHT22;33529;49.242;8.670;2023-03-05T07:33:34;3.50;99.90
47765;DHT22;33529;49.242;8.670;2023-03-05T07:36:05;3.50;99.90
47765;DHT22;33529;49.242;8.670;2023-03-05T07:38:32;3.50;99.90
47765;DHT22;33529;49.242;8.670;2023-03-05T07:41:04;3.50;99.90
47765;DHT22;33529;49.242;8.670;2023-03-05T07:43:32;3.50;99.90
47765;DHT22;33529;49.242;8.670;2023-03-05T07:45:58;3.60;99.90
47765;DHT22;33529;49.242;8.670;2023-03-05T07:48:25;3.70;99.90
47765;DHT22;33529;49.242;8.670;2023-03-05T07:51:00;3.60;99.90
47765;DHT22;33529;49.242;8.670;2023-03-05T07:53:27;3.50;99.90
47765;DHT22;33529;49.242;8.670;2023-03-05T07:55:54;3.60;99.90
47765;DHT22;33529;49.242;8.670;2023-03-05T07:58:21;3.60;99.90
47765;DHT22;33529;49.242;8.670;2023-03-05T08:00:48;3.80;99.90
47765;DHT22;33529;49.242;8.670;2023-03-05T08:03:15;3.80;99.90
47765;DHT22;33529;49.242;8.670;2023-03-05T08:05:42;3.90;99.90
47765;DHT22;33529;49.242;8.670;2023-03-05T08:08:09;4.00;99.90
47765;DHT22;33529;49.242;8.670;2023-03-05T08:10:36;4.10;99.90
47765;DHT22;33529;49.242;8.670;2023-03-05T08:13:04;4.20;99.90
47765;DHT22;33529;49.242;8.670;2023-03-05T08:15:31;4.30;99.90
47765;DHT22;33529;49.242;8.670;2023-03-05T08:17:58;4.40;99.90
47765;DHT22;33529;49.242;8.670;2023-03-05T08:20:25;4.40;99.90
47765;DHT22;33529;49.242;8.670;2023-03-05T08:22:52;4.50;99.90
47765;DHT22;33529;49.242;8.670;2023-03-05T08:25:19;4.60;99.90
47765;DHT22;33529;49.242;8.670;2023-03-05T08:27:46;4.70;99.90
47765;DHT22;33529;49.242;8.670;2023-03-05T08:30:17;4.80;99.90
47765;DHT22;33529;49.242;8.670;2023-03-05T08:32:45;4.90;99.90
47765;DHT22;33529;49.242;8.670;2023-03-05T08:35:13;5.10;99.90
47765;DHT22;33529;49.242;8.670;2023-03-05T08:37:40;5.00;99.90
47765;DHT22;33529;49.242;8.670;2023-03-05T08:40:07;5.20;99.90
47765;DHT22;33529;49.242;8.670;2023-03-05T08:42:34;5.40;99.90
47765;DHT22;33529;49.242;8.670;2023-03-05T08:45:01;5.40;99.90
47765;DHT22;33529;49.242;8.670;2023-03-05T08:47:28;5.50;99.90
47765;DHT22;33529;49.242;8.670;2023-03-05T08:49:55;5.50;99.90
47765;DHT22;33529;49.242;8.670;2023-03-05T08:52:23;5.50;99.90
47765;DHT22;33529;49.242;8.670;2023-03-05T08:54:50;5.50;99.90
47765;DHT22;33529;49.242;8.670;2023-03-05T08:57:17;5.60;99.90
47765;DHT22;33529;49.242;8.670;2023-03-05T08:59:44;5.60;99.90
47765;DHT22;33529;49.242;8.670;2023-03-05T09:02:12;5.70;99.90
47765;DHT22;33529;49.242;8.670;2023-03-05T09:04:39;5.70;99.90
47765;DHT22;33529;49.242;8.670;2023-03-05T09:07:06;5.70;99.90
47765;DHT22;33529;49.242;8.670;2023-03-05T09:09:33;5.80;99.90
47765;DHT22;33529;49.242;8.670;2023-03-05T09:12:01;5.80;99.90
47765;DHT22;33529;49.242;8.670;2023-03-05T09:14:28;5.80;99.90
47765;DHT22;33529;49.242;8.670;2023-03-05T09:16:56;5.80;99.90
47765;DHT22;33529;49.242;8.670;2023-03-05T09:19:23;5.80;99.90
47765;DHT22;33529;49.242;8.670;2023-03-05T09:21:50;5.80;99.90
47765;DHT22;33529;49.242;8.670;2023-03-05T09:24:17;5.80;99.90
47765;DHT22;33529;49.242;8.670;2023-03-05T09:26:44;5.80;99.90
47765;DHT22;33529;49.242;8.670;2023-03-05T09:29:11;5.90;99.90
47765;DHT22;33529;49.242;8.670;2023-03-05T09:31:38;6.00;99.90
47765;DHT22;33529;49.242;8.670;2023-03-05T09:34:05;6.10;99.90
47765;DHT22;33529;49.242;8.670;2023-03-05T09:36:34;6.00;99.90
47765;DHT22;33529;49.242;8.670;2023-03-05T09:39:01;6.10;99.90
47765;DHT22;33529;49.242;8.670;2023-03-05T09:49:53;6.10;99.90
47765;DHT22;33529;49.242;8.670;2023-03-05T09:52:32;6.20;99.90
47765;DHT22;33529;49.242;8.670;2023-03-05T09:55:02;6.20;99.90
47765;DHT22;33529;49.242;8.670;2023-03-05T09:57:35;6.20;99.90
47765;DHT22;33529;49.242;8.670;2023-03-05T10:00:06;6.10;99.90
47765;DHT22;33529;49.242;8.670;2023-03-05T10:02:52;6.20;99.90
47765;DHT22;33529;49.242;8.670;2023-03-05T10:05:30;6.10;99.90
47765;DHT22;33529;49.242;8.670;2023-03-05T10:08:04;5.90;99.90
47765;DHT22;33529;49.242;8.670;2023-03-05T10:10:43;5.90;99.90
47765;DHT22;33529;49.242;8.670;2023-03-05T10:13:18;5.80;99.90
47765;DHT22;33529;49.242;8.670;2023-03-05T10:21:02;5.50;99.90
47765;DHT22;33529;49.242;8.670;2023-03-05T10:23:39;5.50;99.90
47765;DHT22;33529;49.242;8.670;2023-03-05T10:35:35;6.00;99.90
47765;DHT22;33529;49.242;8.670;2023-03-05T10:40:54;5.90;99.90
47765;DHT22;33529;49.242;8.670;2023-03-05T10:46:03;5.80;99.90
47765;DHT22;33529;49.242;8.670;2023-03-05T10:51:33;5.90;99.90
47765;DHT22;33529;49.242;8.670;2023-03-05T10:56:41;5.70;99.90
47765;DHT22;33529;49.242;8.670;2023-03-05T10:59:08;5.70;99.90
47765;DHT22;33529;49.242;8.670;2023-03-05T11:01:34;5.80;99.90
47765;DHT22;33529;49.242;8.670;2023-03-05T11:04:24;5.90;99.90
47765;DHT22;33529;49.242;8.670;2023-03-05T11:06:52;5.90;99.90
47765;DHT22;33529;49.242;8.670;2023-03-05T11:09:37;6.00;99.90
47765;DHT22;33529;49.242;8.670;2023-03-05T11:12:16;6.20;99.90
47765;DHT22;33529;49.242;8.670;2023-03-05T11:17:43;6.10;99.90
47765;DHT22;33529;49.242;8.670;2023-03-05T11:23:16;6.20;99.90
47765;DHT22;33529;49.242;8.670;2023-03-05T11:26:00;6.20;99.90
47765;DHT22;33529;49.242;8.670;2023-03-05T11:29:16;6.10;99.90
47765;DHT22;33529;49.242;8.670;2023-03-05T11:36:30;5.80;99.90
47765;DHT22;33529;49.242;8.670;2023-03-05T11:41:37;5.50;99.90
47765;DHT22;33529;49.242;8.670;2023-03-05T11:44:13;5.50;99.90
47765;DHT22;33529;49.242;8.670;2023-03-05T11:46:47;5.40;99.90
47765;DHT22;33529;49.242;8.670;2023-03-05T11:49:20;5.50;99.90
47765;DHT22;33529;49.242;8.670;2023-03-05T11:54:59;5.50;99.90
47765;DHT22;33529;49.242;8.670;2023-03-05T11:57:35;5.50;99.90
47765;DHT22;33529;49.242;8.670;2023-03-05T12:00:06;5.40;99.90
47765;DHT22;33529;49.242;8.670;2023-03-05T12:02:38;5.40;99.90
47765;DHT22;33529;49.242;8.670;2023-03-05T12:05:06;5.40;99.90
47765;DHT22;33529;49.242;8.670;2023-03-05T12:07:41;5.40;99.90
47765;DHT22;33529;49.242;8.670;2023-03-05T12:10:16;5.50;99.90
47765;DHT22;33529;49.242;8.670;2023-03-05T12:16:17;5.50;99.90
47765;DHT22;33529;49.242;8.670;2023-03-05T12:21:22;5.70;99.90
47765;DHT22;33529;49.242;8.670;2023-03-05T12:23:55;5.70;99.90
47765;DHT22;33529;49.242;8.670;2023-03-05T12:32:00;5.90;99.90
47765;DHT22;33529;49.242;8.670;2023-03-05T12:40:21;6.10;99.90
47765;DHT22;33529;49.242;8.670;2023-03-05T12:42:55;6.10;99.90
47765;DHT22;33529;49.242;8.670;2023-03-05T12:53:14;6.20;99.90
47765;DHT22;33529;49.242;8.670;2023-03-05T12:58:38;6.10;99.90
47765;DHT22;33529;49.242;8.670;2023-03-05T13:03:47;6.10;99.90
47765;DHT22;33529;49.242;8.670;2023-03-05T13:08:58;6.10;99.90
47765;DHT22;33529;49.242;8.670;2023-03-05T13:11:27;6.30;99.90
47765;DHT22;33529;49.242;8.670;2023-03-05T13:13:56;6.20;99.90
47765;DHT22;33529;49.242;8.670;2023-03-05T13:16:37;6.20;99.90
47765;DHT22;33529;49.242;8.670;2023-03-05T13:19:14;6.10;99.90
47765;DHT22;33529;49.242;8.670;2023-03-05T13:21:42;6.00;99.90
47765;DHT22;33529;49.242;8.670;2023-03-05T13:24:16;6.00;99.90
47765;DHT22;33529;49.242;8.670;2023-03-05T13:26:44;6.00;99.90
47765;DHT22;33529;49.242;8.670;2023-03-05T13:29:19;6.00;99.90
47765;DHT22;33529;49.242;8.670;2023-03-05T13:37:16;6.00;99.90
47765;DHT22;33529;49.242;8.670;2023-03-05T13:39:48;6.10;99.90
47765;DHT22;33529;49.242;8.670;2023-03-05T13:42:17;6.10;99.90
47765;DHT22;33529;49.242;8.670;2023-03-05T13:45:36;6.10;99.90
47765;DHT22;33529;49.242;8.670;2023-03-05T13:48:00;6.00;99.90
47765;DHT22;33529;49.242;8.670;2023-03-05T13:50:38;6.10;99.90
47765;DHT22;33529;49.242;8.670;2023-03-05T13:53:19;6.10;99.90
47765;DHT22;33529;49.242;8.670;2023-03-05T13:55:49;6.10;99.90
47765;DHT22;33529;49.242;8.670;2023-03-05T13:58:46;6.10;99.90
47765;DHT22;33529;49.242;8.670;2023-03-05T14:03:51;6.10;99.90
47765;DHT22;33529;49.242;8.670;2023-03-05T14:06:21;6.10;99.90
47765;DHT22;33529;49.242;8.670;2023-03-05T14:08:50;6.00;99.90
47765;DHT22;33529;49.242;8.670;2023-03-05T14:11:18;6.10;99.90
47765;DHT22;33529;49.242;8.670;2023-03-05T14:13:46;6.10;99.90
47765;DHT22;33529;49.242;8.670;2023-03-05T14:16:24;6.10;99.90
47765;DHT22;33529;49.242;8.670;2023-03-05T14:18:56;6.00;99.90
47765;DHT22;33529;49.242;8.670;2023-03-05T14:21:24;5.90;99.90
47765;DHT22;33529;49.242;8.670;2023-03-05T14:23:52;5.80;99.90
47765;DHT22;33529;49.242;8.670;2023-03-05T14:26:37;5.80;99.90
47765;DHT22;33529;49.242;8.670;2023-03-05T14:31:55;5.60;99.90
47765;DHT22;33529;49.242;8.670;2023-03-05T14:34:27;5.70;99.90
47765;DHT22;33529;49.242;8.670;2023-03-05T14:36:59;5.70;99.90
47765;DHT22;33529;49.242;8.670;2023-03-05T14:39:39;5.70;99.90
47765;DHT22;33529;49.242;8.670;2023-03-05T14:42:34;5.60;99.90
47765;DHT22;33529;49.242;8.670;2023-03-05T14:45:14;5.60;99.90
47765;DHT22;33529;49.242;8.670;2023-03-05T14:47:41;5.60;99.90
47765;DHT22;33529;49.242;8.670;2023-03-05T14:50:16;5.60;99.90
47765;DHT22;33529;49.242;8.670;2023-03-05T14:52:45;5.60;99.90
47765;DHT22;33529;49.242;8.670;2023-03-05T14:55:14;5.60;99.90
47765;DHT22;33529;49.242;8.670;2023-03-05T14:57:41;5.60;99.90
47765;DHT22;33529;49.242;8.670;2023-03-05T15:00:15;5.50;99.90
47765;DHT22;33529;49.242;8.670;2023-03-05T15:02:42;5.50;99.90
47765;DHT22;33529;49.242;8.670;2023-03-05T15:05:10;5.60;99.90
47765;DHT22;33529;49.242;8.670;2023-03-05T15:07:37;5.70;99.90
47765;DHT22;33529;49.242;8.670;2023-03-05T15:10:04;5.60;99.90
47765;DHT22;33529;49.242;8.670;2023-03-05T15:12:33;5.50;99.90
47765;DHT22;33529;49.242;8.670;2023-03-05T15:15:00;5.50;99.90
47765;DHT22;33529;49.242;8.670;2023-03-05T15:17:36;5.50;99.90
47765;DHT22;33529;49.242;8.670;2023-03-05T15:20:05;5.60;99.90
47765;DHT22;33529;49.242;8.670;2023-03-05T15:22:35;5.70;99.90
47765;DHT22;33529;49.242;8.670;2023-03-05T15:25:04;5.70;99.90
47765;DHT22;33529;49.242;8.670;2023-03-05T15:27:31;5.60;99.90
47765;DHT22;33529;49.242;8.670;2023-03-05T15:29:58;5.70;99.90
47765;DHT22;33529;49.242;8.670;2023-03-05T15:32:28;5.70;99.90
47765;DHT22;33529;49.242;8.670;2023-03-05T15:34:57;5.60;99.90
47765;DHT22;33529;49.242;8.670;2023-03-05T15:37:24;5.60;99.90
47765;DHT22;33529;49.242;8.670;2023-03-05T15:39:51;5.60;99.90
47765;DHT22;33529;49.242;8.670;2023-03-05T15:42:18;5.50;99.90
47765;DHT22;33529;49.242;8.670;2023-03-05T15:44:46;5.50;99.90
47765;DHT22;33529;49.242;8.670;2023-03-05T15:47:12;5.50;99.90
47765;DHT22;33529;49.242;8.670;2023-03-05T15:49:39;5.40;99.90
47765;DHT22;33529;49.242;8.670;2023-03-05T15:52:06;5.40;99.90
47765;DHT22;33529;49.242;8.670;2023-03-05T15:54:34;5.30;99.90
47765;DHT22;33529;49.242;8.670;2023-03-05T15:57:02;5.30;99.90
47765;DHT22;33529;49.242;8.670;2023-03-05T15:59:28;5.40;99.90
47765;DHT22;33529;49.242;8.670;2023-03-05T16:01:55;5.40;99.90
47765;DHT22;33529;49.242;8.670;2023-03-05T16:04:22;5.40;99.90
47765;DHT22;33529;49.242;8.670;2023-03-05T16:06:49;5.40;99.90
47765;DHT22;33529;49.242;8.670;2023-03-05T16:09:18;5.20;99.90
47765;DHT22;33529;49.242;8.670;2023-03-05T16:11:46;5.30;99.90
47765;DHT22;33529;49.242;8.670;2023-03-05T16:14:23;5.30;99.90
47765;DHT22;33529;49.242;8.670;2023-03-05T16:16:52;5.40;99.90
47765;DHT22;33529;49.242;8.670;2023-03-05T16:19:22;5.30;99.90
47765;DHT22;33529;49.242;8.670;2023-03-05T16:21:49;5.30;99.90
47765;DHT22;33529;49.242;8.670;2023-03-05T16:24:16;5.30;99.90
47765;DHT22;33529;49.242;8.670;2023-03-05T16:26:43;5.30;99.90
47765;DHT22;33529;49.242;8.670;2023-03-05T16:29:10;5.30;99.90
47765;DHT22;33529;49.242;8.670;2023-03-05T16:31:37;5.30;99.90
47765;DHT22;33529;49.242;8.670;2023-03-05T16:34:06;5.30;99.90
47765;DHT22;33529;49.242;8.670;2023-03-05T16:36:32;5.30;99.90
47765;DHT22;33529;49.242;8.670;2023-03-05T16:39:02;5.20;99.90
47765;DHT22;33529;49.242;8.670;2023-03-05T16:41:30;5.20;99.90
47765;DHT22;33529;49.242;8.670;2023-03-05T16:43:57;5.20;99.90
47765;DHT22;33529;49.242;8.670;2023-03-05T16:46:26;5.20;99.90
47765;DHT22;33529;49.242;8.670;2023-03-05T16:48:55;5.20;99.90
47765;DHT22;33529;49.242;8.670;2023-03-05T16:51:22;5.10;99.90
47765;DHT22;33529;49.242;8.670;2023-03-05T16:53:49;5.10;99.90
47765;DHT22;33529;49.242;8.670;2023-03-05T16:56:16;5.00;99.90
47765;DHT22;33529;49.242;8.670;2023-03-05T16:58:44;5.00;99.90
47765;DHT22;33529;49.242;8.670;2023-03-05T17:01:16;5.00;99.90
47765;DHT22;33529;49.242;8.670;2023-03-05T17:03:44;5.00;99.90
47765;DHT22;33529;49.242;8.670;2023-03-05T17:06:16;4.90;99.90
47765;DHT22;33529;49.242;8.670;2023-03-05T17:08:45;4.90;99.90
47765;DHT22;33529;49.242;8.670;2023-03-05T17:11:12;4.80;99.90
47765;DHT22;33529;49.242;8.670;2023-03-05T17:13:40;4.80;99.90
47765;DHT22;33529;49.242;8.670;2023-03-05T17:16:08;4.80;99.90
47765;DHT22;33529;49.242;8.670;2023-03-05T17:18:36;4.80;99.90
47765;DHT22;33529;49.242;8.670;2023-03-05T17:21:04;4.80;99.90
47765;DHT22;33529;49.242;8.670;2023-03-05T17:23:31;4.80;99.90
47765;DHT22;33529;49.242;8.670;2023-03-05T17:25:57;4.70;99.90
47765;DHT22;33529;49.242;8.670;2023-03-05T17:28:24;4.70;99.90
47765;DHT22;33529;49.242;8.670;2023-03-05T17:30:52;4.70;99.90
47765;DHT22;33529;49.242;8.670;2023-03-05T17:33:18;4.70;99.90
47765;DHT22;33529;49.242;8.670;2023-03-05T17:35:48;4.70;99.90
47765;DHT22;33529;49.242;8.670;2023-03-05T17:38:15;4.70;99.90
47765;DHT22;33529;49.242;8.670;2023-03-05T17:40:43;4.70;99.90
47765;DHT22;33529;49.242;8.670;2023-03-05T17:43:11;4.70;99.90